createdAt,value
2022-10-26T00:00:52.374Z,3.50
2022-10-26T00:03:19.556Z,3.50
2022-10-26T00:05:46.096Z,3.63
2022-10-26T00:08:13.557Z,3.28
2022-10-26T00:10:40.566Z,3.67
2022-10-26T00:13:11.447Z,3.40
2022-10-26T00:15:42.559Z,3.30
2022-10-26T00:18:10.061Z,3.40
2022-10-26T00:20:36.681Z,3.20
2022-10-26T00:23:03.416Z,3.55
2022-10-26T00:25:29.956Z,3.97
2022-10-26T00:27:56.549Z,3.42
2022-10-26T00:30:23.159Z,3.40
2022-10-26T00:32:49.739Z,3.58
2022-10-26T00:35:24.070Z,3.47
2022-10-26T00:38:01.283Z,3.70
2022-10-26T00:40:29.200Z,3.35
2022-10-26T00:42:56.303Z,3.60
2022-10-26T00:45:29.512Z,4.25
2022-10-26T00:48:05.245Z,3.22
2022-10-26T00:50:43.996Z,3.47
2022-10-26T00:53:11.891Z,3.47
2022-10-26T00:55:44.543Z,3.15
2022-10-26T00:58:11.961Z,3.30
2022-10-26T01:00:40.705Z,3.53
2022-10-26T01:03:08.547Z,3.15
2022-10-26T01:05:40.042Z,3.28
2022-10-26T01:08:08.546Z,2.80
2022-10-26T01:10:37.787Z,3.15
2022-10-26T01:13:05.000Z,3.08
2022-10-26T01:15:45.591Z,2.65
2022-10-26T01:18:24.835Z,2.88
2022-10-26T01:21:24.477Z,2.80
2022-10-26T01:24:15.063Z,2.55
2022-10-26T01:27:01.443Z,2.78
2022-10-26T01:29:36.692Z,2.50
2022-10-26T01:32:39.142Z,3.45
2022-10-26T01:35:18.626Z,2.60
2022-10-26T01:37:58.829Z,2.60
2022-10-26T01:40:36.384Z,2.55
2022-10-26T01:43:08.004Z,2.65
2022-10-26T01:45:37.428Z,2.50
2022-10-26T01:48:04.817Z,2.30
2022-10-26T01:50:32.748Z,2.45
2022-10-26T01:52:59.601Z,2.50
2022-10-26T01:55:48.929Z,2.33
2022-10-26T01:58:29.211Z,2.30
2022-10-26T02:01:29.983Z,2.40
2022-10-26T02:04:18.503Z,2.25
2022-10-26T02:06:56.812Z,2.30
2022-10-26T02:09:46.031Z,2.05
2022-10-26T02:12:30.302Z,2.28
2022-10-26T02:15:16.829Z,2.33
2022-10-26T02:17:57.512Z,2.33
2022-10-26T02:20:46.616Z,2.10
2022-10-26T02:23:15.277Z,2.08
2022-10-26T02:25:48.878Z,2.58
2022-10-26T02:28:19.720Z,2.17
2022-10-26T02:30:50.632Z,2.20
2022-10-26T02:33:19.371Z,1.98
2022-10-26T02:35:50.096Z,2.10
2022-10-26T02:38:19.707Z,1.70
2022-10-26T02:40:49.505Z,2.30
2022-10-26T02:43:21.951Z,2.00
2022-10-26T02:45:56.367Z,1.88
2022-10-26T02:48:23.669Z,2.20
2022-10-26T02:51:23.951Z,2.42
2022-10-26T02:53:59.082Z,1.73
2022-10-26T02:56:35.691Z,1.90
2022-10-26T02:59:05.610Z,1.73
2022-10-26T03:01:34.422Z,2.00
2022-10-26T03:04:01.444Z,2.28
2022-10-26T03:06:28.173Z,1.73
2022-10-26T03:08:54.854Z,2.47
2022-10-26T03:11:21.440Z,2.03
2022-10-26T03:13:48.023Z,1.75
2022-10-26T03:16:14.585Z,1.90
2022-10-26T03:18:41.149Z,2.08
2022-10-26T03:21:07.810Z,1.70
2022-10-26T03:23:34.386Z,1.77
2022-10-26T03:26:01.085Z,1.58
2022-10-26T03:28:27.751Z,1.80
2022-10-26T03:30:54.357Z,1.80
2022-10-26T03:33:24.352Z,1.52
2022-10-26T03:35:57.236Z,1.70
2022-10-26T03:38:24.177Z,1.80
2022-10-26T03:40:50.746Z,2.00
2022-10-26T03:43:17.428Z,1.77
2022-10-26T03:45:44.093Z,1.70
2022-10-26T03:48:10.929Z,1.80
2022-10-26T03:50:37.543Z,1.63
2022-10-26T03:53:04.291Z,1.80
2022-10-26T03:55:31.037Z,1.85
2022-10-26T03:57:57.621Z,1.70
2022-10-26T04:00:24.599Z,1.60
2022-10-26T04:02:57.553Z,1.75
2022-10-26T04:05:26.390Z,1.60
2022-10-26T04:07:58.090Z,1.80
2022-10-26T04:10:26.244Z,1.80
2022-10-26T04:12:53.548Z,1.85
2022-10-26T04:15:20.511Z,1.83
2022-10-26T04:17:47.769Z,1.70
2022-10-26T04:20:15.235Z,1.63
2022-10-26T04:22:41.788Z,1.90
2022-10-26T04:25:08.717Z,1.60
2022-10-26T04:27:35.555Z,1.90
2022-10-26T04:30:02.173Z,1.70
2022-10-26T04:32:28.839Z,1.92
2022-10-26T04:34:55.410Z,1.85
2022-10-26T04:37:21.983Z,1.90
2022-10-26T04:39:48.543Z,2.00
2022-10-26T04:42:15.140Z,1.98
2022-10-26T04:44:41.742Z,1.70
2022-10-26T04:47:08.318Z,1.90
2022-10-26T04:49:34.901Z,1.90
2022-10-26T04:52:01.515Z,2.00
2022-10-26T04:54:28.071Z,1.85
2022-10-26T04:56:54.731Z,1.80
2022-10-26T04:59:21.308Z,2.13
2022-10-26T05:01:47.991Z,2.00
2022-10-26T05:04:14.799Z,1.85
2022-10-26T05:06:41.393Z,2.22
2022-10-26T05:09:07.999Z,2.40
2022-10-26T05:11:34.593Z,1.92
2022-10-26T05:14:01.166Z,2.10
2022-10-26T05:16:27.758Z,2.20
2022-10-26T05:18:54.324Z,2.28
2022-10-26T05:21:20.880Z,2.03
2022-10-26T05:23:55.433Z,2.08
2022-10-26T05:26:25.087Z,2.05
2022-10-26T05:28:52.579Z,2.13
2022-10-26T05:31:19.988Z,2.15
2022-10-26T05:33:50.643Z,1.90
2022-10-26T05:36:20.456Z,2.47
2022-10-26T05:38:47.408Z,2.10
2022-10-26T05:41:14.029Z,2.10
2022-10-26T05:43:40.606Z,2.22
2022-10-26T05:46:07.189Z,1.55
2022-10-26T05:48:33.758Z,2.00
2022-10-26T05:51:01.258Z,2.25
2022-10-26T05:53:28.468Z,2.10
2022-10-26T05:55:56.382Z,2.20
2022-10-26T05:58:23.610Z,2.22
2022-10-26T06:00:50.163Z,2.40
2022-10-26T06:03:33.870Z,1.98
2022-10-26T06:06:02.759Z,1.80
2022-10-26T06:08:32.225Z,1.90
2022-10-26T06:11:02.958Z,2.03
2022-10-26T06:13:29.892Z,2.10
2022-10-26T06:16:26.608Z,1.92
2022-10-26T06:19:02.070Z,1.67
2022-10-26T06:21:45.418Z,1.95
2022-10-26T06:24:11.940Z,2.28
2022-10-26T06:26:45.423Z,2.55
2022-10-26T06:29:49.926Z,2.45
2022-10-26T06:32:17.410Z,2.35
2022-10-26T06:34:46.509Z,2.80
2022-10-26T06:37:13.706Z,3.50
2022-10-26T06:39:48.853Z,2.58
2022-10-26T06:42:18.360Z,2.33
2022-10-26T06:44:45.161Z,3.95
2022-10-26T06:47:33.857Z,2.95
2022-10-26T06:50:18.429Z,3.22
2022-10-26T06:52:54.209Z,2.22
2022-10-26T06:55:21.850Z,2.58
2022-10-26T06:57:49.337Z,2.20
2022-10-26T07:00:25.111Z,2.70
2022-10-26T07:02:52.160Z,2.00
2022-10-26T07:05:19.139Z,2.00
2022-10-26T07:07:47.675Z,2.20
2022-10-26T07:10:15.361Z,2.20
2022-10-26T07:12:41.951Z,2.40
2022-10-26T07:17:48.687Z,2.95
2022-10-26T07:20:20.863Z,3.00
2022-10-26T07:22:57.010Z,2.67
2022-10-26T07:25:25.397Z,2.33
2022-10-26T07:27:52.370Z,2.50
2022-10-26T07:30:19.027Z,2.45
2022-10-26T07:32:45.629Z,2.47
2022-10-26T07:35:12.198Z,2.75
2022-10-26T07:37:38.810Z,2.28
2022-10-26T07:40:07.048Z,2.92
2022-10-26T07:42:34.337Z,2.20
2022-10-26T07:45:00.944Z,2.40
2022-10-26T07:47:27.531Z,3.00
2022-10-26T07:49:54.145Z,2.60
2022-10-26T07:52:20.724Z,2.22
2022-10-26T07:54:47.427Z,2.28
2022-10-26T07:57:17.342Z,1.98
2022-10-26T07:59:44.213Z,1.92
2022-10-26T08:02:10.966Z,2.10
2022-10-26T08:04:37.558Z,1.88
2022-10-26T08:07:04.161Z,1.98
2022-10-26T08:09:30.760Z,1.52
2022-10-26T08:11:57.336Z,1.77
2022-10-26T08:14:23.908Z,1.42
2022-10-26T08:16:52.289Z,2.38
2022-10-26T08:19:19.384Z,1.67
2022-10-26T08:21:45.997Z,1.60
2022-10-26T08:24:12.555Z,1.60
2022-10-26T08:26:39.145Z,1.67
2022-10-26T08:29:05.752Z,1.60
2022-10-26T08:31:32.351Z,1.73
2022-10-26T08:33:59.526Z,1.45
2022-10-26T08:36:27.703Z,1.58
2022-10-26T08:38:54.365Z,1.42
2022-10-26T08:41:30.513Z,1.60
2022-10-26T08:44:03.042Z,1.77
2022-10-26T08:46:37.227Z,1.52
2022-10-26T08:49:26.096Z,1.63
2022-10-26T08:51:58.006Z,1.83
2022-10-26T08:54:38.236Z,1.42
2022-10-26T08:57:19.046Z,1.58
2022-10-26T09:00:05.570Z,1.90
2022-10-26T09:02:32.616Z,1.65
2022-10-26T09:05:00.359Z,1.70
2022-10-26T09:07:52.894Z,1.63
2022-10-26T09:10:40.062Z,1.40
2022-10-26T09:13:36.409Z,1.75
2022-10-26T09:16:17.371Z,1.55
2022-10-26T09:19:02.776Z,2.10
2022-10-26T09:21:48.616Z,1.83
2022-10-26T09:24:38.795Z,2.30
2022-10-26T09:27:18.368Z,2.20
2022-10-26T09:29:45.236Z,1.70
2022-10-26T09:32:20.911Z,2.00
2022-10-26T09:35:01.839Z,2.25
2022-10-26T09:37:37.541Z,2.60
2022-10-26T09:40:29.797Z,2.30
2022-10-26T09:43:06.645Z,2.33
2022-10-26T09:45:37.796Z,1.73
2022-10-26T09:48:33.960Z,2.10
2022-10-26T09:51:03.738Z,1.85
2022-10-26T09:53:32.477Z,2.53
2022-10-26T09:56:11.097Z,2.10
2022-10-26T09:58:44.739Z,2.55
2022-10-26T10:01:35.545Z,2.25
2022-10-26T10:04:28.181Z,2.20
2022-10-26T10:07:00.891Z,2.00
2022-10-26T10:09:27.451Z,2.90
2022-10-26T10:11:56.522Z,2.25
2022-10-26T10:14:34.794Z,2.03
2022-10-26T10:17:21.059Z,2.15
2022-10-26T10:19:47.891Z,2.22
2022-10-26T10:22:22.308Z,2.53
2022-10-26T10:25:03.109Z,2.63
2022-10-26T10:27:31.668Z,2.00
2022-10-26T10:30:03.256Z,2.22
2022-10-26T10:32:35.648Z,2.28
2022-10-26T10:35:23.876Z,2.97
2022-10-26T10:37:51.561Z,3.10
2022-10-26T10:40:21.733Z,2.30
2022-10-26T10:42:49.981Z,2.33
2022-10-26T10:45:26.126Z,2.58
2022-10-26T10:48:06.020Z,2.75
2022-10-26T10:50:33.897Z,2.25
2022-10-26T10:53:24.399Z,2.08
2022-10-26T10:56:11.734Z,2.38
2022-10-26T10:59:12.236Z,2.15
2022-10-26T11:01:42.328Z,2.38
2022-10-26T11:04:33.127Z,2.50
2022-10-26T11:07:03.466Z,2.13
2022-10-26T11:09:33.965Z,2.10
2022-10-26T11:12:16.820Z,2.13
2022-10-26T11:14:49.567Z,2.17
2022-10-26T11:17:16.297Z,1.88
2022-10-26T11:19:58.809Z,2.13
2022-10-26T11:22:36.078Z,1.58
2022-10-26T11:25:18.868Z,2.05
2022-10-26T11:28:10.857Z,2.10
2022-10-26T11:30:46.289Z,1.58
2022-10-26T11:33:40.628Z,2.00
2022-10-26T11:36:17.366Z,1.88
2022-10-26T11:39:03.971Z,1.58
2022-10-26T11:41:40.109Z,1.58
2022-10-26T11:44:18.828Z,1.60
2022-10-26T11:46:50.267Z,1.60
2022-10-26T11:49:53.732Z,1.90
2022-10-26T11:52:28.376Z,1.92
2022-10-26T11:54:58.353Z,1.77
2022-10-26T11:57:28.000Z,1.98
2022-10-26T11:59:59.666Z,1.85
2022-10-26T12:02:26.609Z,1.60
2022-10-26T12:05:25.277Z,1.60
2022-10-26T12:08:02.848Z,1.92
2022-10-26T12:10:32.764Z,1.60
2022-10-26T12:13:27.328Z,1.55
2022-10-26T12:16:05.565Z,1.45
2022-10-26T12:18:54.510Z,1.77
2022-10-26T12:21:23.917Z,1.90
2022-10-26T12:24:02.613Z,2.42
2022-10-26T12:26:29.187Z,1.90
2022-10-26T12:29:02.068Z,1.50
2022-10-26T12:31:38.291Z,1.75
2022-10-26T12:34:11.957Z,1.60
2022-10-26T12:36:56.543Z,1.50
2022-10-26T12:39:36.589Z,1.65
2022-10-26T12:42:06.168Z,1.88
2022-10-26T12:44:37.592Z,1.58
2022-10-26T12:47:05.788Z,1.70
2022-10-26T12:50:06.654Z,1.73
2022-10-26T12:52:44.615Z,1.40
2022-10-26T12:55:22.345Z,1.80
2022-10-26T12:58:10.353Z,1.52
2022-10-26T13:00:43.875Z,2.05
2022-10-26T13:03:46.616Z,1.45
2022-10-26T13:06:31.800Z,1.60
2022-10-26T13:09:00.869Z,1.60
2022-10-26T13:11:35.108Z,1.40
2022-10-26T13:14:18.380Z,1.75
2022-10-26T13:16:46.649Z,1.60
2022-10-26T13:19:40.000Z,1.80
2022-10-26T13:22:13.347Z,1.30
2022-10-26T13:24:49.862Z,1.70
2022-10-26T13:27:16.379Z,1.65
2022-10-26T13:30:05.025Z,1.65
2022-10-26T13:32:35.802Z,1.98
2022-10-26T13:35:04.702Z,1.67
2022-10-26T13:37:33.559Z,1.60
2022-10-26T13:40:03.938Z,1.50
2022-10-26T13:42:38.420Z,1.77
2022-10-26T13:45:20.428Z,1.90
2022-10-26T13:48:15.060Z,1.63
2022-10-26T13:50:54.633Z,1.67
2022-10-26T13:53:37.556Z,1.50
2022-10-26T13:56:21.379Z,1.63
2022-10-26T13:59:02.911Z,1.50
2022-10-26T14:01:30.497Z,1.60
2022-10-26T14:03:57.912Z,1.70
2022-10-26T14:06:34.006Z,2.22
2022-10-26T14:09:04.531Z,1.45
2022-10-26T14:11:53.797Z,1.40
2022-10-26T14:14:24.170Z,1.65
2022-10-26T14:16:52.299Z,1.85
2022-10-26T14:19:30.798Z,1.95
2022-10-26T14:21:58.201Z,2.30
2022-10-26T14:24:45.847Z,1.67
2022-10-26T14:27:18.012Z,1.75
2022-10-26T14:29:53.915Z,1.92
2022-10-26T14:32:33.464Z,1.50
2022-10-26T14:35:00.146Z,1.75
2022-10-26T14:37:40.900Z,1.80
2022-10-26T14:40:14.980Z,1.60
2022-10-26T14:42:46.785Z,2.15
2022-10-26T14:45:48.223Z,1.10
2022-10-26T14:48:21.332Z,1.75
2022-10-26T14:51:19.321Z,1.65
2022-10-26T14:53:58.233Z,1.38
2022-10-26T14:56:40.037Z,1.30
2022-10-26T14:59:26.910Z,1.98
2022-10-26T15:02:04.409Z,2.13
2022-10-26T15:04:32.874Z,2.28
2022-10-26T15:07:16.128Z,1.80
2022-10-26T15:09:51.022Z,1.98
2022-10-26T15:12:28.712Z,3.00
2022-10-26T15:14:56.230Z,2.42
2022-10-26T15:17:35.939Z,2.33
2022-10-26T15:20:07.171Z,2.17
2022-10-26T15:22:34.458Z,2.30
2022-10-26T15:25:05.618Z,2.28
2022-10-26T15:27:32.298Z,1.95
2022-10-26T15:30:20.985Z,2.53
2022-10-26T15:32:48.841Z,2.47
2022-10-26T15:35:18.569Z,3.03
2022-10-26T15:37:49.769Z,2.80
2022-10-26T15:40:16.531Z,2.72
2022-10-26T15:42:45.222Z,2.60
2022-10-26T15:45:32.849Z,2.55
2022-10-26T15:48:13.933Z,1.65
2022-10-26T15:50:41.337Z,2.35
2022-10-26T15:53:16.200Z,3.58
2022-10-26T15:55:42.786Z,3.08
2022-10-26T15:58:11.261Z,2.55
2022-10-26T16:00:37.909Z,1.85
2022-10-26T16:03:04.495Z,1.65
2022-10-26T16:07:58.947Z,1.65
2022-10-26T16:10:25.584Z,1.63
2022-10-26T16:12:52.724Z,1.40
2022-10-26T16:15:21.578Z,1.52
2022-10-26T16:17:48.468Z,1.60
2022-10-26T16:20:18.656Z,1.67
2022-10-26T16:22:48.162Z,1.60
2022-10-26T16:25:21.976Z,1.80
2022-10-26T16:27:49.528Z,1.60
2022-10-26T16:30:16.666Z,1.58
2022-10-26T16:32:43.511Z,1.48
2022-10-26T16:35:11.970Z,1.70
2022-10-26T16:37:39.072Z,1.75
2022-10-26T16:40:06.726Z,1.70
2022-10-26T16:42:33.385Z,1.90
2022-10-26T16:45:02.617Z,1.85
2022-10-26T16:47:35.092Z,1.88
2022-10-26T16:50:01.682Z,1.70
2022-10-26T16:52:28.267Z,2.33
2022-10-26T16:54:54.906Z,2.60
2022-10-26T16:57:21.462Z,2.30
2022-10-26T16:59:48.237Z,3.42
2022-10-26T17:02:15.381Z,2.95
2022-10-26T17:04:42.022Z,4.47
2022-10-26T17:07:08.920Z,4.28
2022-10-26T17:09:35.536Z,4.63
2022-10-26T17:12:02.491Z,4.55
2022-10-26T17:14:29.149Z,4.28
2022-10-26T17:16:55.760Z,4.68
2022-10-26T17:19:22.332Z,4.25
2022-10-26T17:21:49.103Z,4.45
2022-10-26T17:24:15.725Z,3.95
2022-10-26T17:26:42.599Z,4.05
2022-10-26T17:29:12.097Z,3.92
2022-10-26T17:31:38.897Z,4.45
2022-10-26T17:34:05.511Z,4.60
2022-10-26T17:36:32.193Z,5.28
2022-10-26T17:39:00.709Z,5.57
2022-10-26T17:41:27.987Z,4.97
2022-10-26T17:43:54.715Z,4.40
2022-10-26T17:46:26.233Z,5.03
2022-10-26T17:49:00.659Z,4.63
2022-10-26T17:51:29.532Z,4.47
2022-10-26T17:53:57.084Z,3.80
2022-10-26T17:56:29.723Z,4.00
2022-10-26T17:58:59.125Z,4.10
2022-10-26T18:01:27.251Z,3.53
2022-10-26T18:03:54.776Z,4.53
2022-10-26T18:06:22.278Z,3.70
2022-10-26T18:08:49.180Z,5.15
2022-10-26T18:11:22.542Z,5.45
2022-10-26T18:13:54.013Z,5.68
2022-10-26T18:16:22.112Z,6.00
2022-10-26T18:18:50.291Z,5.60
2022-10-26T18:21:19.261Z,5.38
2022-10-26T18:23:46.453Z,5.45
2022-10-26T18:26:18.829Z,5.40
2022-10-26T18:28:46.189Z,5.32
2022-10-26T18:31:15.088Z,4.60
2022-10-26T18:33:41.780Z,4.85
2022-10-26T18:36:16.879Z,4.90
2022-10-26T18:38:44.148Z,4.47
2022-10-26T18:41:12.516Z,4.10
2022-10-26T18:43:44.001Z,5.65
2022-10-26T18:46:16.246Z,4.43
2022-10-26T18:48:45.787Z,4.47
2022-10-26T18:51:15.602Z,4.95
2022-10-26T18:53:43.994Z,4.47
2022-10-26T18:56:19.547Z,4.10
2022-10-26T18:58:48.995Z,4.60
2022-10-26T19:01:20.936Z,4.65
2022-10-26T19:03:52.080Z,4.18
2022-10-26T19:06:25.010Z,4.50
2022-10-26T19:08:52.211Z,4.50
2022-10-26T19:11:20.673Z,4.30
2022-10-26T19:13:47.822Z,4.80
2022-10-26T19:16:40.206Z,4.60
2022-10-26T19:19:20.448Z,4.45
2022-10-26T19:21:48.674Z,4.13
2022-10-26T19:24:20.552Z,4.18
2022-10-26T19:26:48.703Z,4.95
2022-10-26T19:29:17.018Z,4.80
2022-10-26T19:31:48.071Z,5.68
2022-10-26T19:34:15.759Z,7.40
2022-10-26T19:36:44.839Z,6.55
2022-10-26T19:39:15.908Z,5.05
2022-10-26T19:41:43.332Z,4.90
2022-10-26T19:44:11.488Z,5.22
2022-10-26T19:46:39.418Z,4.65
2022-10-26T19:49:06.017Z,5.32
2022-10-26T19:51:32.911Z,4.60
2022-10-26T19:54:03.739Z,4.38
2022-10-26T19:56:35.667Z,4.07
2022-10-26T19:59:02.373Z,3.90
2022-10-26T20:01:29.118Z,4.47
2022-10-26T20:03:55.876Z,5.00
2022-10-26T20:06:22.827Z,4.15
2022-10-26T20:08:49.944Z,4.03
2022-10-26T20:11:17.860Z,4.45
2022-10-26T20:13:46.347Z,4.03
2022-10-26T20:16:14.494Z,3.72
2022-10-26T20:18:44.167Z,3.60
2022-10-26T20:21:16.448Z,4.07
2022-10-26T20:23:43.909Z,4.13
2022-10-26T20:26:18.021Z,3.67
2022-10-26T20:28:48.002Z,4.20
2022-10-26T20:31:14.776Z,7.65
2022-10-26T20:33:41.428Z,6.50
2022-10-26T20:36:08.559Z,6.03
2022-10-26T20:38:35.615Z,4.43
2022-10-26T20:41:06.126Z,5.10
2022-10-26T20:43:38.563Z,5.15
2022-10-26T20:46:05.813Z,4.60
2022-10-26T20:48:32.679Z,4.07
2022-10-26T20:51:15.246Z,4.03
2022-10-26T20:54:01.391Z,4.50
2022-10-26T20:56:28.772Z,3.85
2022-10-26T20:58:57.533Z,3.70
2022-10-26T21:01:32.880Z,3.72
2022-10-26T21:04:01.854Z,4.13
2022-10-26T21:06:29.103Z,4.30
2022-10-26T21:08:57.044Z,4.20
2022-10-26T21:11:25.644Z,3.67
2022-10-26T21:13:54.274Z,3.53
2022-10-26T21:18:49.215Z,3.10
2022-10-26T21:21:15.963Z,3.10
2022-10-26T21:23:42.717Z,3.05
2022-10-26T21:26:09.617Z,2.50
2022-10-26T21:28:39.133Z,2.97
2022-10-26T21:31:07.882Z,2.97
2022-10-26T21:33:34.521Z,2.60
2022-10-26T21:36:03.445Z,3.03
2022-10-26T21:38:31.302Z,4.03
2022-10-26T21:41:18.728Z,3.80
2022-10-26T21:43:47.745Z,3.72
2022-10-26T21:46:15.760Z,3.65
2022-10-26T21:48:42.996Z,3.63
2022-10-26T21:51:15.508Z,2.80
2022-10-26T21:53:42.393Z,2.70
2022-10-26T21:56:13.573Z,2.90
2022-10-26T21:58:40.383Z,2.92
2022-10-26T22:01:15.942Z,2.67
2022-10-26T22:03:43.956Z,2.30
2022-10-26T22:06:12.245Z,2.72
2022-10-26T22:08:38.937Z,2.45
2022-10-26T22:11:07.842Z,2.50
2022-10-26T22:13:35.333Z,2.55
2022-10-26T22:16:10.075Z,2.70
2022-10-26T22:18:38.449Z,2.50
2022-10-26T22:21:06.184Z,2.40
2022-10-26T22:23:38.221Z,2.72
2022-10-26T22:26:07.196Z,2.42
2022-10-26T22:28:41.577Z,2.35
2022-10-26T22:31:12.609Z,2.47
2022-10-26T22:33:39.520Z,2.42
2022-10-26T22:36:08.115Z,2.28
2022-10-26T22:38:34.979Z,2.47
2022-10-26T22:41:01.833Z,2.65
2022-10-26T22:43:28.891Z,2.20
2022-10-26T22:46:02.674Z,2.60
2022-10-26T22:48:29.902Z,2.45
2022-10-26T22:50:56.550Z,2.40
2022-10-26T22:53:23.455Z,2.50
2022-10-26T22:55:50.153Z,2.53
2022-10-26T22:58:17.187Z,2.45
2022-10-26T23:00:43.758Z,2.80
2022-10-26T23:03:10.318Z,2.70
2022-10-26T23:05:37.207Z,2.47
2022-10-26T23:08:03.998Z,2.45
2022-10-26T23:10:30.574Z,2.78
2022-10-26T23:12:57.195Z,2.95
2022-10-26T23:15:25.012Z,2.95
2022-10-26T23:17:53.546Z,2.63
2022-10-26T23:20:20.342Z,2.28
2022-10-26T23:22:46.901Z,2.97
2022-10-26T23:25:13.574Z,2.72
2022-10-26T23:27:40.156Z,2.30
2022-10-26T23:30:07.703Z,2.63
2022-10-26T23:32:34.358Z,2.90
2022-10-26T23:35:00.905Z,2.55
2022-10-26T23:37:27.484Z,2.85
2022-10-26T23:39:54.430Z,2.75
2022-10-26T23:42:21.004Z,2.47
2022-10-26T23:44:47.584Z,2.80
2022-10-26T23:47:14.192Z,3.10
2022-10-26T23:49:40.741Z,2.47
2022-10-26T23:52:07.347Z,2.80
2022-10-26T23:54:33.922Z,2.75
2022-10-26T23:57:00.503Z,2.95
2022-10-26T23:59:27.059Z,2.80
